Whaley Lake, New York
Current Conditions -  °F | °C
As of 12:53 AM on Sunday 23 Nov 2014 (Local Time) from KPOU Reporting Station
Scattered Clouds Scattered Clouds  
Wind Chill: 39°   Ceiling: Unl
Heat Index: 43°   Visibility: 10mi
Dew Point: 18°   Wind: 7mph
Humidity: 37%   Direction: 210°SSW
Pressure: 30.16"   Gusts: NA
Location:  41.5306°N, 73.6674°W
Report Text: KPOU 230553Z AUTO 21006KT 10SM FEW044 SCT120 06/M08 A3016 RMK AO2 SLP210 T00611078 10061 20056 56004 TSNO
Loading
Personal Weather Stations






























Interactive Weather Map New forecast layout! Learn more

10-Day Weather Forecast

Advertisements
Track Severe Weather on mobile